createdAt,value
2023-03-27T00:00:08.756Z,99706.22
2023-03-27T00:02:37.836Z,99750.56
2023-03-27T00:05:06.352Z,99760.56
2023-03-27T00:07:36.121Z,99751.22
2023-03-27T00:10:05.750Z,99775.84
2023-03-27T00:12:33.627Z,99771.41
2023-03-27T00:15:01.769Z,99774.72
2023-03-27T00:17:30.223Z,99759.09
2023-03-27T00:19:58.429Z,99791.59
2023-03-27T00:22:26.236Z,99789.75
2023-03-27T00:24:54.051Z,99762.88
2023-03-27T00:27:25.052Z,99781.81
2023-03-27T00:29:53.959Z,99796.66
2023-03-27T00:32:22.214Z,99803.78
2023-03-27T00:34:50.275Z,99806.91
2023-03-27T00:37:18.143Z,99793.09
2023-03-27T00:39:50.021Z,99808.91
2023-03-27T00:42:22.907Z,99795.88
2023-03-27T00:44:53.889Z,99809.13
2023-03-27T00:47:30.926Z,99767.22
2023-03-27T00:50:01.168Z,99824.25
2023-03-27T00:52:31.538Z,99826.75
2023-03-27T00:55:02.056Z,99834.88
2023-03-27T00:57:30.603Z,99838.56
2023-03-27T01:00:09.561Z,99757.38
2023-03-27T01:02:38.443Z,99842.75
2023-03-27T01:05:07.654Z,99854.41
2023-03-27T01:07:35.453Z,99855.09
2023-03-27T01:10:04.605Z,99854.50
2023-03-27T01:12:45.566Z,99842.47
2023-03-27T01:15:32.750Z,99860.09
2023-03-27T01:18:09.447Z,99866.47
2023-03-27T01:20:56.986Z,99866.03
2023-03-27T01:24:04.078Z,99859.94
2023-03-27T01:26:58.254Z,99874.88
2023-03-27T01:29:36.468Z,99882.06
2023-03-27T01:32:44.940Z,99889.19
2023-03-27T01:35:50.471Z,99883.88
2023-03-27T01:39:02.753Z,99899.56
2023-03-27T01:41:36.236Z,99881.72
2023-03-27T01:44:10.020Z,99866.47
2023-03-27T01:46:44.544Z,99877.72
2023-03-27T01:49:15.674Z,99904.94
2023-03-27T01:51:50.304Z,99906.63
2023-03-27T01:54:23.673Z,99910.38
2023-03-27T01:56:55.593Z,99807.06
2023-03-27T01:59:28.669Z,99920.69
2023-03-27T02:02:01.449Z,99914.69
2023-03-27T02:04:35.314Z,99923.50
2023-03-27T02:07:08.910Z,99907.03
2023-03-27T02:09:43.581Z,99944.06
2023-03-27T02:12:15.337Z,99937.91
2023-03-27T02:14:51.384Z,99893.28
2023-03-27T02:17:21.560Z,99937.97
2023-03-27T02:19:51.345Z,99944.78
2023-03-27T02:22:19.236Z,99944.06
2023-03-27T02:25:26.305Z,99945.13
2023-03-27T02:28:06.554Z,99954.66
2023-03-27T02:30:37.212Z,99960.22
2023-03-27T02:33:14.821Z,99965.59
2023-03-27T02:35:53.091Z,99969.03
2023-03-27T02:38:29.962Z,99972.50
2023-03-27T02:41:08.783Z,99949.03
2023-03-27T02:43:59.064Z,99976.22
2023-03-27T02:46:45.439Z,99983.38
2023-03-27T02:49:20.693Z,99969.16
2023-03-27T02:51:54.209Z,99999.06
2023-03-27T02:54:27.836Z,99999.06
2023-03-27T02:57:01.920Z,99986.00
2023-03-27T02:59:50.825Z,99998.13
2023-03-27T03:02:24.771Z,99935.97
2023-03-27T03:05:03.925Z,99999.78
2023-03-27T03:07:40.820Z,99876.53
2023-03-27T03:10:12.439Z,99949.19
2023-03-27T03:12:41.970Z,99992.75
2023-03-27T03:15:10.610Z,100010.28
2023-03-27T03:17:38.597Z,100017.34
2023-03-27T03:20:09.836Z,99995.38
2023-03-27T03:22:39.861Z,100023.59
2023-03-27T03:25:08.602Z,100021.81
2023-03-27T03:27:36.524Z,100036.78
2023-03-27T03:30:17.057Z,99956.38
2023-03-27T03:32:58.265Z,100041.22
2023-03-27T03:35:26.345Z,100041.28
2023-03-27T03:37:54.374Z,100055.44
2023-03-27T03:40:22.928Z,100021.19
2023-03-27T03:42:55.846Z,100055.56
2023-03-27T03:45:29.171Z,100063.66
2023-03-27T03:47:57.307Z,100070.63
2023-03-27T03:50:25.648Z,100065.25
2023-03-27T03:52:53.898Z,100068.72
2023-03-27T03:55:21.777Z,100070.50
2023-03-27T03:57:50.144Z,100028.53
2023-03-27T04:00:25.413Z,100050.34
2023-03-27T04:02:57.555Z,100066.91
2023-03-27T04:05:25.995Z,100082.94
2023-03-27T04:07:56.769Z,100081.28
2023-03-27T04:10:45.483Z,100079.03
2023-03-27T04:13:26.688Z,100077.09
2023-03-27T04:16:02.293Z,100099.09
2023-03-27T04:18:41.172Z,100097.47
2023-03-27T04:21:15.211Z,100107.09
2023-03-27T04:23:45.180Z,100107.13
2023-03-27T04:26:16.252Z,100055.41
2023-03-27T04:29:02.811Z,100113.19
2023-03-27T04:31:51.914Z,100119.50
2023-03-27T04:34:43.810Z,100134.81
2023-03-27T04:37:23.398Z,100127.78
2023-03-27T04:40:17.953Z,100132.25
2023-03-27T04:42:46.538Z,100132.94
2023-03-27T04:45:17.704Z,99982.41
2023-03-27T04:47:48.966Z,100138.47
2023-03-27T04:50:19.150Z,100137.41
2023-03-27T04:52:50.204Z,100148.88
2023-03-27T04:55:19.684Z,100130.38
2023-03-27T04:57:50.562Z,100156.88
2023-03-27T05:00:20.286Z,100158.72
2023-03-27T05:02:49.016Z,100106.09
2023-03-27T05:05:31.061Z,100154.34
2023-03-27T05:07:59.356Z,100158.91
2023-03-27T05:10:28.025Z,100130.00
2023-03-27T05:12:58.386Z,100169.47
2023-03-27T05:15:27.711Z,100178.22
2023-03-27T05:17:56.428Z,100130.84
2023-03-27T05:20:27.187Z,100179.94
2023-03-27T05:22:57.256Z,100176.50
2023-03-27T05:25:29.866Z,100133.59
2023-03-27T05:27:59.784Z,100185.25
2023-03-27T05:30:31.183Z,100194.03
2023-03-27T05:33:20.572Z,100193.91
2023-03-27T05:35:52.300Z,100196.53
2023-03-27T05:38:22.694Z,100205.41
2023-03-27T05:41:10.889Z,100199.28
2023-03-27T05:43:45.229Z,100205.41
2023-03-27T05:46:14.556Z,100210.41
2023-03-27T05:48:54.044Z,100213.97
2023-03-27T05:51:22.431Z,100213.06
2023-03-27T05:53:51.694Z,100206.13
2023-03-27T05:56:25.984Z,100221.94
2023-03-27T05:58:59.750Z,100226.84
2023-03-27T06:01:29.215Z,100225.69
2023-03-27T06:03:59.773Z,100227.47
2023-03-27T06:06:47.748Z,100220.28
2023-03-27T06:09:17.022Z,100237.97
2023-03-27T06:11:56.482Z,100240.84
2023-03-27T06:14:25.156Z,100237.28
2023-03-27T06:17:13.995Z,100239.88
2023-03-27T06:19:45.561Z,100239.16
2023-03-27T06:22:13.684Z,100235.28
2023-03-27T06:24:43.041Z,100244.91
2023-03-27T06:27:14.499Z,100244.47
2023-03-27T06:29:42.502Z,100249.00
2023-03-27T06:32:11.768Z,100255.78
2023-03-27T06:34:45.302Z,100257.41
2023-03-27T06:37:37.094Z,100238.84
2023-03-27T06:40:10.260Z,100248.38
2023-03-27T06:42:40.377Z,100263.28
2023-03-27T06:45:32.242Z,100273.13
2023-03-27T06:48:29.497Z,100271.13
2023-03-27T06:50:58.925Z,100246.16
2023-03-27T06:53:28.606Z,100282.69
2023-03-27T06:55:59.174Z,100248.34
2023-03-27T06:58:31.479Z,100292.28
2023-03-27T07:01:00.162Z,100253.31
2023-03-27T07:03:48.118Z,100293.66
2023-03-27T07:06:34.362Z,100305.88
2023-03-27T07:09:08.322Z,100306.31
2023-03-27T07:11:37.691Z,100319.72
2023-03-27T07:14:09.524Z,100322.03
2023-03-27T07:16:38.300Z,100318.66
2023-03-27T07:19:06.375Z,100304.56
2023-03-27T07:21:37.745Z,100287.19
2023-03-27T07:24:06.310Z,100337.84
2023-03-27T07:26:39.229Z,100322.19
2023-03-27T07:29:33.059Z,100335.41
2023-03-27T07:32:05.391Z,100337.41
2023-03-27T07:34:42.285Z,100341.56
2023-03-27T07:37:14.481Z,100333.09
2023-03-27T07:40:00.132Z,100344.84
2023-03-27T07:42:30.697Z,100344.16
2023-03-27T07:45:04.622Z,100354.50
2023-03-27T07:47:32.967Z,100326.09
2023-03-27T07:50:01.467Z,100314.13
2023-03-27T07:52:29.355Z,100359.03
2023-03-27T07:55:03.669Z,100335.00
2023-03-27T07:57:57.248Z,100352.31
2023-03-27T08:00:29.691Z,100366.94
2023-03-27T08:03:09.865Z,100372.31
2023-03-27T08:05:42.977Z,100376.88
2023-03-27T08:08:13.090Z,100376.59
2023-03-27T08:10:46.417Z,100366.31
2023-03-27T08:13:18.299Z,100362.94
2023-03-27T08:15:46.609Z,100383.44
2023-03-27T08:18:24.467Z,100381.00
2023-03-27T08:20:57.153Z,100368.34
2023-03-27T08:23:27.217Z,100377.50
2023-03-27T08:26:18.134Z,100366.72
2023-03-27T08:28:54.117Z,100319.53
2023-03-27T08:31:25.812Z,100386.81
2023-03-27T08:33:56.038Z,100386.09
2023-03-27T08:36:27.957Z,100380.44
2023-03-27T08:38:56.454Z,100376.41
2023-03-27T08:41:38.462Z,100274.16
2023-03-27T08:44:19.704Z,100334.63
2023-03-27T08:46:52.199Z,100386.03
2023-03-27T08:49:21.836Z,100370.28
2023-03-27T08:52:15.641Z,100385.06
2023-03-27T08:54:47.721Z,100385.56
2023-03-27T08:57:23.721Z,100368.44
2023-03-27T09:00:04.590Z,100331.41
2023-03-27T09:02:45.689Z,100403.16
2023-03-27T09:05:19.358Z,100398.56
2023-03-27T09:07:57.052Z,100415.34
2023-03-27T09:10:36.869Z,100413.31
2023-03-27T09:13:20.296Z,100414.31
2023-03-27T09:15:58.076Z,100416.13
2023-03-27T09:18:31.479Z,100421.47
2023-03-27T09:21:07.194Z,100397.78
2023-03-27T09:23:39.600Z,100387.09
2023-03-27T09:26:32.039Z,100415.63
2023-03-27T09:29:22.468Z,100416.28
2023-03-27T09:31:59.796Z,100419.31
2023-03-27T09:34:30.472Z,100413.63
2023-03-27T09:37:00.413Z,100423.69
2023-03-27T09:39:33.934Z,100356.13
2023-03-27T09:42:19.305Z,100419.50
2023-03-27T09:44:51.361Z,100420.94
2023-03-27T09:47:28.059Z,100420.72
2023-03-27T09:50:08.345Z,100313.91
2023-03-27T09:52:54.463Z,100392.50
2023-03-27T09:55:52.965Z,100428.13
2023-03-27T09:58:34.480Z,100341.09
2023-03-27T10:01:15.568Z,100428.91
2023-03-27T10:03:51.919Z,100432.72
2023-03-27T10:06:31.425Z,100416.72
2023-03-27T10:09:20.841Z,100435.19
2023-03-27T10:11:50.764Z,100320.06
2023-03-27T10:14:27.012Z,100438.78
2023-03-27T10:16:56.033Z,100437.69
2023-03-27T10:19:30.529Z,100438.72
2023-03-27T10:22:04.879Z,100425.63
2023-03-27T10:24:34.254Z,100397.81
2023-03-27T10:27:07.506Z,100445.72
2023-03-27T10:29:39.765Z,100437.34
2023-03-27T10:32:13.947Z,100439.59
2023-03-27T10:35:23.599Z,100441.50
2023-03-27T10:38:16.924Z,100443.13
2023-03-27T10:41:14.844Z,100449.97
2023-03-27T10:43:50.721Z,100454.75
2023-03-27T10:46:22.588Z,100454.88
2023-03-27T10:48:59.579Z,100445.53
2023-03-27T10:51:47.057Z,100422.84
2023-03-27T10:54:35.511Z,100437.47
2023-03-27T10:57:07.019Z,100430.31
2023-03-27T10:59:42.850Z,100441.38
2023-03-27T11:02:40.729Z,100446.59
2023-03-27T11:05:13.121Z,100444.38
2023-03-27T11:07:50.344Z,100466.34
2023-03-27T11:10:24.909Z,100516.59
2023-03-27T11:12:57.402Z,100530.09
2023-03-27T11:15:31.553Z,100505.81
2023-03-27T11:18:03.997Z,100537.84
2023-03-27T11:20:47.343Z,100501.94
2023-03-27T11:23:50.300Z,100507.97
2023-03-27T11:26:23.088Z,100509.19
2023-03-27T11:28:57.537Z,100501.22
2023-03-27T11:31:39.201Z,100498.66
2023-03-27T11:34:14.206Z,100486.09
2023-03-27T11:37:02.677Z,100507.59
2023-03-27T11:39:43.451Z,100512.53
2023-03-27T11:42:17.368Z,100505.72
2023-03-27T11:44:46.765Z,100487.81
2023-03-27T11:48:10.228Z,100505.13
2023-03-27T11:50:53.025Z,100506.34
2023-03-27T11:53:43.745Z,100506.25
2023-03-27T11:56:29.072Z,100473.88
2023-03-27T11:59:21.942Z,100538.59
2023-03-27T12:02:07.750Z,100573.03
2023-03-27T12:04:48.460Z,100589.75
2023-03-27T12:07:47.668Z,100598.13
2023-03-27T12:10:28.936Z,100578.34
2023-03-27T12:13:40.728Z,100551.75
2023-03-27T12:16:33.091Z,100447.47
2023-03-27T12:19:28.313Z,100529.63
2023-03-27T12:22:27.067Z,100517.69
2023-03-27T12:25:27.160Z,100536.81
2023-03-27T12:28:46.337Z,100526.41
2023-03-27T12:31:36.290Z,100527.72
2023-03-27T12:34:07.075Z,100532.88
2023-03-27T12:36:39.252Z,100538.47
2023-03-27T12:39:16.187Z,100522.22
2023-03-27T12:41:45.428Z,100536.56
2023-03-27T12:44:29.164Z,100528.84
2023-03-27T12:47:21.565Z,100534.97
2023-03-27T12:49:59.382Z,100390.09
2023-03-27T12:52:33.791Z,100532.44
2023-03-27T12:55:24.073Z,100494.81
2023-03-27T12:57:58.252Z,100512.59
2023-03-27T13:00:59.688Z,100512.13
2023-03-27T13:04:10.086Z,100554.22
2023-03-27T13:06:48.109Z,100548.91
2023-03-27T13:09:29.318Z,100544.38
2023-03-27T13:12:19.451Z,100550.16
2023-03-27T13:15:06.624Z,100602.75
2023-03-27T13:18:04.636Z,100584.47
2023-03-27T13:20:47.142Z,100581.13
2023-03-27T13:23:43.018Z,100590.84
2023-03-27T13:26:36.450Z,100613.34
2023-03-27T13:29:16.990Z,100612.38
2023-03-27T13:31:59.143Z,100600.31
2023-03-27T13:34:42.171Z,100593.06
2023-03-27T13:37:53.633Z,100585.63
2023-03-27T13:40:31.520Z,100590.63
2023-03-27T13:43:23.488Z,100578.06
2023-03-27T13:46:00.080Z,100555.59
2023-03-27T13:49:16.404Z,100579.09
2023-03-27T13:52:27.192Z,100571.72
2023-03-27T13:55:20.538Z,100562.22
2023-03-27T13:58:23.408Z,100565.34
2023-03-27T14:01:14.185Z,100560.41
2023-03-27T14:04:06.259Z,100560.41
2023-03-27T14:08:01.216Z,58428.38
2023-03-27T14:11:58.997Z,58428.38
2023-03-27T14:16:17.191Z,58428.38
2023-03-27T14:20:20.147Z,58428.38
2023-03-27T14:23:53.267Z,58428.38
2023-03-27T14:27:33.878Z,58428.38
2023-03-27T14:31:07.056Z,58428.38
2023-03-27T14:35:05.612Z,58428.38
2023-03-27T14:38:39.761Z,58428.38
2023-03-27T14:42:17.782Z,58428.38
2023-03-27T14:45:49.275Z,58428.38
2023-03-27T14:49:24.507Z,58428.38
2023-03-27T14:53:00.401Z,58428.38
2023-03-27T14:56:38.256Z,58428.38
2023-03-27T15:00:27.521Z,58428.38
2023-03-27T15:03:54.454Z,58428.38
2023-03-27T15:07:28.664Z,58428.38
2023-03-27T15:11:17.853Z,58428.38
2023-03-27T15:15:25.455Z,58428.38
2023-03-27T15:18:58.639Z,58428.38
2023-03-27T15:22:29.918Z,58428.38
2023-03-27T15:26:01.996Z,58428.38
2023-03-27T15:29:39.148Z,58428.38
2023-03-27T15:33:09.812Z,58428.38
2023-03-27T15:36:38.568Z,58428.38
2023-03-27T15:40:28.487Z,58428.38
2023-03-27T15:44:02.676Z,58428.38
2023-03-27T15:47:34.348Z,58428.38
2023-03-27T15:51:06.660Z,58428.38
2023-03-27T15:54:34.742Z,58428.38
2023-03-27T15:58:13.837Z,58428.38
2023-03-27T16:01:53.219Z,58428.38
2023-03-27T16:05:20.792Z,58428.38
2023-03-27T16:08:48.973Z,58428.38
2023-03-27T16:12:32.760Z,58428.38
2023-03-27T16:16:01.008Z,58428.38
2023-03-27T16:19:41.627Z,58428.38
2023-03-27T16:23:08.723Z,58428.38
2023-03-27T16:26:35.320Z,58428.38
2023-03-27T16:30:03.352Z,58428.38
2023-03-27T16:33:31.114Z,58428.38
2023-03-27T16:36:57.791Z,58428.38
2023-03-27T16:40:24.358Z,58428.38
2023-03-27T16:43:50.763Z,58428.38
2023-03-27T16:47:20.520Z,58428.38
2023-03-27T16:50:48.345Z,58428.38
2023-03-27T16:54:14.646Z,58428.38
2023-03-27T16:57:41.767Z,58428.38
2023-03-27T17:01:09.788Z,58428.38
2023-03-27T17:04:37.652Z,58428.38
2023-03-27T17:08:07.315Z,58428.38
2023-03-27T17:11:34.164Z,58428.38
2023-03-27T17:15:01.005Z,58428.38
2023-03-27T17:18:30.309Z,58428.38
2023-03-27T17:21:56.610Z,58428.38
2023-03-27T17:25:24.489Z,58428.38
2023-03-27T17:28:50.902Z,58428.38
2023-03-27T17:32:17.302Z,58428.38
2023-03-27T17:35:43.756Z,58428.38
2023-03-27T17:39:10.359Z,58428.38
2023-03-27T17:42:38.472Z,58428.38
2023-03-27T17:46:05.554Z,58428.38
2023-03-27T17:49:34.375Z,58428.38
2023-03-27T17:53:00.754Z,58428.38
2023-03-27T17:56:27.288Z,58428.38
2023-03-27T17:59:55.300Z,58428.38
2023-03-27T18:03:22.175Z,58428.38
2023-03-27T18:06:48.988Z,58428.38
2023-03-27T18:10:19.122Z,58428.38
2023-03-27T18:13:51.285Z,58428.38
2023-03-27T18:17:21.122Z,58428.38
2023-03-27T18:20:50.865Z,58428.38
2023-03-27T18:24:17.235Z,58428.38
2023-03-27T18:27:44.875Z,58428.38
2023-03-27T18:31:13.003Z,58428.38
2023-03-27T18:33:56.058Z,58428.38
2023-03-27T18:36:23.941Z,100811.94
2023-03-27T18:38:52.068Z,100813.81
2023-03-27T18:41:20.060Z,100802.34
2023-03-27T18:43:48.010Z,100782.22
2023-03-27T18:46:17.623Z,100820.97
2023-03-27T18:48:48.955Z,100817.53
2023-03-27T18:51:18.646Z,100800.88
2023-03-27T18:53:46.925Z,100828.31
2023-03-27T18:56:15.061Z,100830.06
2023-03-27T18:58:43.055Z,100809.81
2023-03-27T19:01:11.611Z,100829.22
2023-03-27T19:03:42.136Z,100835.28
2023-03-27T19:06:12.960Z,100844.28
2023-03-27T19:08:42.671Z,100844.25
2023-03-27T19:11:11.451Z,100840.59
2023-03-27T19:14:17.790Z,100785.31
2023-03-27T19:17:06.198Z,100850.47
2023-03-27T19:19:54.190Z,100847.84
2023-03-27T19:22:49.451Z,100818.00
2023-03-27T19:25:40.165Z,100763.47
2023-03-27T19:28:08.136Z,100842.63
2023-03-27T19:30:36.167Z,100870.03
2023-03-27T19:33:04.108Z,100873.53
2023-03-27T19:35:32.179Z,100869.03
2023-03-27T19:38:01.386Z,100878.06
2023-03-27T19:40:29.358Z,100880.69
2023-03-27T19:42:57.173Z,100880.63
2023-03-27T19:45:26.355Z,100884.13
2023-03-27T19:47:54.169Z,100873.72
2023-03-27T19:50:22.743Z,100875.59
2023-03-27T19:53:14.648Z,100874.56
2023-03-27T19:55:43.032Z,100880.91
2023-03-27T19:58:10.997Z,100841.34
2023-03-27T20:00:39.440Z,100871.91
2023-03-27T20:03:10.001Z,100875.41
2023-03-27T20:05:41.749Z,100891.50
2023-03-27T20:08:09.569Z,100886.38
2023-03-27T20:10:38.862Z,100856.44
2023-03-27T20:13:06.708Z,100871.41
2023-03-27T20:15:34.888Z,100886.53
2023-03-27T20:18:04.609Z,100858.31
2023-03-27T20:20:32.641Z,100894.41
2023-03-27T20:23:02.740Z,100895.34
2023-03-27T20:25:33.682Z,100892.78
2023-03-27T20:28:06.239Z,100897.19
2023-03-27T20:30:37.066Z,100901.69
2023-03-27T20:33:05.490Z,100858.44
2023-03-27T20:35:36.557Z,100897.34
2023-03-27T20:38:05.732Z,100867.28
2023-03-27T20:40:52.241Z,100894.50
2023-03-27T20:43:27.244Z,100897.94
2023-03-27T20:45:58.771Z,100896.22
2023-03-27T20:48:32.449Z,100837.94
2023-03-27T20:51:02.911Z,100894.50
2023-03-27T20:53:33.634Z,100860.88
2023-03-27T20:56:04.763Z,100901.50
2023-03-27T20:58:36.598Z,100901.47
2023-03-27T21:01:06.795Z,100862.81
2023-03-27T21:03:36.808Z,100907.84
2023-03-27T21:06:06.704Z,100903.47
2023-03-27T21:08:35.308Z,100840.00
2023-03-27T21:11:03.866Z,100903.47
2023-03-27T21:13:32.284Z,100907.09
2023-03-27T21:16:02.515Z,100907.00
2023-03-27T21:18:30.969Z,100894.66
2023-03-27T21:20:58.880Z,100902.66
2023-03-27T21:23:26.837Z,100884.03
2023-03-27T21:25:55.423Z,100905.25
2023-03-27T21:28:23.396Z,100907.84
2023-03-27T21:30:51.240Z,100868.25
2023-03-27T21:33:20.652Z,100860.19
2023-03-27T21:35:49.625Z,100898.94
2023-03-27T21:38:18.672Z,100904.44
2023-03-27T21:40:47.584Z,100884.09
2023-03-27T21:43:16.641Z,100886.78
2023-03-27T21:45:46.615Z,100911.53
2023-03-27T21:48:14.513Z,100907.97
2023-03-27T21:50:43.869Z,100767.69
2023-03-27T21:53:13.478Z,100913.19
2023-03-27T21:55:41.513Z,100900.06
2023-03-27T21:58:09.661Z,100914.16
2023-03-27T22:00:37.758Z,100916.00
2023-03-27T22:03:06.767Z,100919.56
2023-03-27T22:05:37.072Z,100923.97
2023-03-27T22:08:06.950Z,100871.03
2023-03-27T22:10:35.724Z,100911.63
2023-03-27T22:13:04.027Z,100928.34
2023-03-27T22:15:32.324Z,100926.66
2023-03-27T22:18:01.005Z,100909.78
2023-03-27T22:20:29.069Z,100921.25
2023-03-27T22:22:56.864Z,100935.38
2023-03-27T22:25:26.469Z,100934.53
2023-03-27T22:27:54.307Z,100931.94
2023-03-27T22:30:22.172Z,100938.13
2023-03-27T22:32:50.139Z,100938.16
2023-03-27T22:35:18.207Z,100926.69
2023-03-27T22:37:46.195Z,100937.25
2023-03-27T22:40:14.174Z,100923.16
2023-03-27T22:42:43.395Z,100931.13
2023-03-27T22:45:12.232Z,100942.59
2023-03-27T22:47:40.066Z,100949.66
2023-03-27T22:50:08.887Z,100954.91
2023-03-27T22:52:36.663Z,100958.50
2023-03-27T22:55:06.095Z,100893.13
2023-03-27T22:57:36.119Z,100953.22
2023-03-27T23:00:06.945Z,100926.75
2023-03-27T23:02:35.020Z,100937.38
2023-03-27T23:05:04.147Z,100974.41
2023-03-27T23:07:32.611Z,100972.69
2023-03-27T23:10:00.788Z,100979.78
2023-03-27T23:12:28.696Z,100980.59
2023-03-27T23:14:56.560Z,100982.44
2023-03-27T23:17:25.877Z,100981.47
2023-03-27T23:19:53.769Z,100979.75
2023-03-27T23:22:21.672Z,100986.84
2023-03-27T23:24:49.565Z,100988.59
2023-03-27T23:27:17.381Z,100969.16
2023-03-27T23:29:45.832Z,100978.91
2023-03-27T23:32:13.747Z,100866.72
2023-03-27T23:34:43.039Z,100987.69
2023-03-27T23:37:10.908Z,100975.34
2023-03-27T23:39:38.864Z,100995.66
2023-03-27T23:42:07.046Z,100959.44
2023-03-27T23:44:34.911Z,101003.63
2023-03-27T23:47:02.792Z,100981.53
2023-03-27T23:49:30.774Z,101000.13
2023-03-27T23:51:59.943Z,100542.97
2023-03-27T23:54:27.756Z,101019.53
2023-03-27T23:56:55.778Z,100990.38
2023-03-27T23:59:23.724Z,100975.38
